Time;durP1;ratioP1;P1;durP2;ratioP2;P2;SDS_P1;SDS_P2;PMS_P1;PMS_P2;Temp;Humidity;BMP_temperature;BMP_pressure;BME280_temperature;BME280_humidity;BME280_pressure;Samples;Min_cycle;Max_cycle;Signal;HPM_P1;HPM_P2
2023/05/12 00:02:23;;;;;;;1.03;1.03;;;;;;;11.51;100.00;95101.78;4357512;32;20192;-58
2023/05/12 00:04:48;;;;;;;0.87;0.87;;;;;;;11.55;100.00;95101.97;4358052;32;20201;-57
2023/05/12 00:07:13;;;;;;;2.63;1.17;;;;;;;11.56;100.00;95099.00;4345065;32;20248;-58
2023/05/12 00:09:40;;;;;;;0.97;0.97;;;;;;;11.43;100.00;95096.44;4341107;32;20189;-59
2023/05/12 00:12:07;;;;;;;0.87;0.83;;;;;;;11.32;100.00;95101.22;4346923;32;20194;-57
2023/05/12 00:14:34;;;;;;;9.70;1.43;;;;;;;11.41;100.00;95106.59;4346611;32;20193;-58
2023/05/12 00:16:59;;;;;;;0.63;0.63;;;;;;;11.39;100.00;95104.22;4358937;32;20212;-58
2023/05/12 00:19:25;;;;;;;1.23;1.13;;;;;;;11.46;100.00;95103.78;4347238;32;20212;-58
2023/05/12 00:21:50;;;;;;;0.97;0.80;;;;;;;11.29;100.00;95104.47;4361015;32;20251;-58
2023/05/12 00:24:16;;;;;;;0.83;0.83;;;;;;;11.31;100.00;95108.41;4359597;32;20216;-58
2023/05/12 00:26:41;;;;;;;1.10;1.10;;;;;;;11.43;100.00;95102.50;4343502;32;20207;-58
2023/05/12 00:29:06;;;;;;;1.10;1.10;;;;;;;11.37;100.00;95098.44;4355980;32;20193;-58
2023/05/12 00:31:32;;;;;;;0.80;0.80;;;;;;;11.45;100.00;95096.91;4360714;32;20209;-58
2023/05/12 00:33:57;;;;;;;0.90;0.90;;;;;;;11.36;100.00;95094.22;4335184;32;20276;-58
2023/05/12 00:36:23;;;;;;;1.03;1.00;;;;;;;11.23;100.00;95103.00;4353420;32;20208;-58
2023/05/12 00:38:49;;;;;;;0.40;0.40;;;;;;;11.32;100.00;95096.69;4351137;32;20198;-58
2023/05/12 00:41:14;;;;;;;0.93;0.93;;;;;;;11.35;100.00;95096.09;4345202;32;20201;-58
2023/05/12 00:43:40;;;;;;;0.87;0.87;;;;;;;11.33;100.00;95089.50;4342224;32;20216;-58
2023/05/12 00:46:06;;;;;;;1.07;1.07;;;;;;;11.33;100.00;95086.84;4357477;32;20177;-58
2023/05/12 00:48:32;;;;;;;0.77;0.77;;;;;;;11.30;100.00;95092.75;4360040;32;20249;-58
2023/05/12 00:50:59;;;;;;;0.73;0.73;;;;;;;11.36;100.00;95092.34;4351985;32;20189;-58
2023/05/12 00:53:24;;;;;;;1.60;1.60;;;;;;;11.36;100.00;95087.03;4358309;32;20189;-57
2023/05/12 00:55:50;;;;;;;1.37;1.37;;;;;;;11.22;100.00;95090.84;4362958;32;20247;-58
2023/05/12 00:58:15;;;;;;;1.20;1.13;;;;;;;11.17;100.00;95089.09;4360154;32;20189;-58
2023/05/12 01:00:41;;;;;;;0.63;0.63;;;;;;;11.11;100.00;95094.81;4349198;32;20192;-58
2023/05/12 01:03:06;;;;;;;0.80;0.80;;;;;;;11.22;100.00;95082.88;4345720;32;20193;-58
2023/05/12 01:05:58;;;;;;;0.80;0.80;;;;;;;11.02;100.00;95089.44;4360318;32;20199;-58
2023/05/12 01:08:23;;;;;;;0.90;0.90;;;;;;;11.20;100.00;95080.53;4341847;32;20182;-58
2023/05/12 01:10:49;;;;;;;1.10;1.10;;;;;;;11.17;100.00;95091.75;4360950;32;20253;-57
2023/05/12 01:13:14;;;;;;;1.27;1.27;;;;;;;11.29;100.00;95088.53;4355018;32;20262;-58
2023/05/12 01:15:45;;;;;;;1.23;1.23;;;;;;;11.14;100.00;95086.25;4354886;32;20189;-58
2023/05/12 01:18:12;;;;;;;1.83;1.80;;;;;;;11.12;100.00;95088.44;4346443;32;20220;-58
2023/05/12 01:20:40;;;;;;;1.43;1.40;;;;;;;11.20;100.00;95074.44;4349065;32;20193;-58
2023/05/12 01:23:06;;;;;;;1.77;1.67;;;;;;;11.06;100.00;95085.09;4356764;32;20197;-58
2023/05/12 01:25:36;;;;;;;0.83;0.83;;;;;;;11.11;100.00;95073.59;4337597;32;20207;-58
2023/05/12 01:28:02;;;;;;;0.93;0.93;;;;;;;11.03;100.00;95070.56;4345044;32;20192;-58
2023/05/12 01:30:28;;;;;;;1.43;1.43;;;;;;;11.01;100.00;95072.72;4356209;32;20235;-59
2023/05/12 01:32:54;;;;;;;1.70;1.60;;;;;;;10.96;100.00;95075.53;4347338;32;20247;-58
2023/05/12 01:35:19;;;;;;;1.63;1.63;;;;;;;10.93;100.00;95076.13;4349060;32;20188;-58
2023/05/12 01:37:45;;;;;;;1.23;1.23;;;;;;;10.96;100.00;95072.09;4360996;32;20248;-58
2023/05/12 01:40:10;;;;;;;1.03;1.03;;;;;;;10.91;100.00;95075.63;4347249;32;20260;-58
2023/05/12 01:42:38;;;;;;;2.63;1.80;;;;;;;10.96;100.00;95080.81;4350739;32;20189;-58
2023/05/12 01:45:04;;;;;;;1.07;1.07;;;;;;;10.91;100.00;95077.50;4345373;32;20207;-58
2023/05/12 01:47:30;;;;;;;1.40;1.33;;;;;;;10.95;100.00;95083.78;4338208;32;20197;-58
2023/05/12 01:49:55;;;;;;;3.37;2.03;;;;;;;10.94;100.00;95079.56;4350773;32;20247;-58
2023/05/12 01:52:21;;;;;;;1.87;1.77;;;;;;;10.91;100.00;95082.81;4341936;32;20197;-58
2023/05/12 01:54:46;;;;;;;2.27;2.07;;;;;;;10.95;100.00;95079.25;4353061;32;20237;-57
2023/05/12 01:57:12;;;;;;;2.23;1.27;;;;;;;10.96;100.00;95080.81;4359392;32;20272;-58
2023/05/12 01:59:37;;;;;;;2.60;2.50;;;;;;;11.01;100.00;95075.38;4359302;32;20203;-58
2023/05/12 02:02:02;;;;;;;2.03;1.93;;;;;;;10.91;100.00;95078.28;4348498;32;20257;-58
2023/05/12 02:04:28;;;;;;;1.43;1.37;;;;;;;10.89;100.00;95080.44;4341867;32;20328;-58
2023/05/12 02:06:53;;;;;;;1.97;1.87;;;;;;;10.94;100.00;95075.03;4349917;32;20189;-58
2023/05/12 02:09:20;;;;;;;1.20;1.20;;;;;;;10.80;100.00;95084.13;4342579;32;20234;-58
2023/05/12 02:11:45;;;;;;;0.73;0.73;;;;;;;10.83;100.00;95081.66;4337679;32;20213;-58
2023/05/12 02:14:10;;;;;;;2.37;2.23;;;;;;;10.75;100.00;95070.97;4341225;32;20266;-58
2023/05/12 02:16:36;;;;;;;2.33;2.23;;;;;;;10.87;100.00;95072.00;4361053;32;20185;-58
2023/05/12 02:19:01;;;;;;;2.73;2.53;;;;;;;10.82;100.00;95074.78;4347497;32;20193;-58
2023/05/12 02:21:26;;;;;;;1.53;1.47;;;;;;;10.87;100.00;95071.22;4333166;32;20209;-58
2023/05/12 02:23:52;;;;;;;2.23;2.13;;;;;;;10.97;100.00;95071.78;4358889;32;20181;-58
2023/05/12 02:26:18;;;;;;;2.73;2.53;;;;;;;11.01;100.00;95075.38;4362111;32;20231;-58
2023/05/12 02:28:43;;;;;;;2.20;2.10;;;;;;;11.02;100.00;95073.50;4347550;32;20193;-59
2023/05/12 02:31:08;;;;;;;2.33;1.97;;;;;;;11.07;100.00;95062.00;4346448;32;20233;-60
2023/05/12 02:33:34;;;;;;;2.73;2.00;;;;;;;11.10;100.00;95070.13;4349274;32;20185;-58
2023/05/12 02:35:59;;;;;;;2.73;2.53;;;;;;;11.18;100.00;95071.28;4341169;32;20207;-58
2023/05/12 02:38:25;;;;;;;2.53;2.33;;;;;;;11.11;100.00;95065.62;4353299;32;20204;-57
2023/05/12 02:40:50;;;;;;;1.70;1.70;;;;;;;10.97;100.00;95069.13;4355129;32;20217;-58
2023/05/12 02:43:15;;;;;;;2.13;2.00;;;;;;;10.96;100.00;95066.78;4339137;32;20208;-58
2023/05/12 02:45:41;;;;;;;2.47;2.37;;;;;;;11.18;100.00;95066.00;4351119;32;20237;-58
2023/05/12 02:48:06;;;;;;;1.83;1.73;;;;;;;11.18;100.00;95073.94;4357877;32;20219;-57
2023/05/12 02:50:31;;;;;;;2.43;2.23;;;;;;;10.85;100.00;95076.81;4347220;32;20245;-58
2023/05/12 02:52:57;;;;;;;2.30;2.07;;;;;;;10.83;100.00;95075.56;4348451;32;20207;-58
2023/05/12 02:55:22;;;;;;;1.50;1.50;;;;;;;10.97;100.00;95074.44;4352360;32;20246;-58
2023/05/12 02:57:48;;;;;;;1.50;1.43;;;;;;;11.13;100.00;95068.75;4355762;32;20272;-58
2023/05/12 03:00:13;;;;;;;1.93;1.83;;;;;;;11.16;100.00;95076.13;4352370;32;20255;-58
2023/05/12 03:02:40;;;;;;;2.70;2.50;;;;;;;11.08;100.00;95077.63;4354594;32;20235;-58
2023/05/12 03:05:07;;;;;;;2.27;1.93;;;;;;;11.18;100.00;95076.59;4348167;32;20211;-58
2023/05/12 03:07:33;;;;;;;1.63;1.63;;;;;;;11.11;100.00;95078.88;4340880;32;20197;-59
2023/05/12 03:09:59;;;;;;;1.37;1.37;;;;;;;11.10;100.00;95079.97;4339193;32;20299;-58
2023/05/12 03:12:24;;;;;;;1.13;1.13;;;;;;;11.15;100.00;95079.84;4330912;32;20218;-58
2023/05/12 03:14:50;;;;;;;1.53;1.53;;;;;;;11.11;100.00;95078.88;4347965;32;20208;-58
2023/05/12 03:17:15;;;;;;;2.37;2.27;;;;;;;11.11;100.00;95082.34;4336368;32;20247;-58
2023/05/12 03:19:41;;;;;;;2.23;2.07;;;;;;;11.00;100.00;95081.81;4342264;32;20240;-58
2023/05/12 03:22:06;;;;;;;2.30;2.20;;;;;;;10.87;100.00;95085.28;4346424;32;20213;-58
2023/05/12 03:24:32;;;;;;;2.77;2.67;;;;;;;10.89;100.00;95083.09;4341082;32;20192;-58
2023/05/12 03:26:58;;;;;;;1.90;1.80;;;;;;;10.82;100.00;95081.94;4337863;32;20246;-58
2023/05/12 03:29:24;;;;;;;2.00;1.90;;;;;;;10.90;100.00;95089.19;4332635;32;20213;-58
2023/05/12 03:31:49;;;;;;;2.93;2.73;;;;;;;10.79;100.00;95083.34;4336405;32;20208;-58
2023/05/12 03:34:14;;;;;;;2.40;2.30;;;;;;;10.72;100.00;95093.59;4332050;32;20217;-58
2023/05/12 03:36:40;;;;;;;2.07;1.97;;;;;;;10.74;100.00;95094.06;4347099;32;20182;-59
2023/05/12 03:39:08;;;;;;;3.87;2.50;;;;;;;10.67;100.00;95088.38;4348303;32;20217;-58
2023/05/12 03:41:33;;;;;;;2.33;2.23;;;;;;;10.58;100.00;95093.63;4351920;32;20204;-57
2023/05/12 03:43:58;;;;;;;2.27;2.17;;;;;;;10.61;100.00;95094.88;4339255;32;20276;-59
2023/05/12 03:46:24;;;;;;;1.90;1.80;;;;;;;10.77;100.00;95096.12;4332167;32;20219;-58
2023/05/12 03:48:49;;;;;;;2.73;2.53;;;;;;;10.85;100.00;95090.09;4325672;32;20181;-58
2023/05/12 03:51:14;;;;;;;1.77;1.73;;;;;;;10.77;100.00;95076.78;4329347;33;20185;-58
2023/05/12 03:53:44;;;;;;;2.23;2.13;;;;;;;10.97;100.00;95082.41;4350450;32;20216;-58
2023/05/12 03:56:09;;;;;;;2.33;2.20;;;;;;;10.98;100.00;95078.66;4349211;32;20173;-59
2023/05/12 03:58:35;;;;;;;2.10;2.00;;;;;;;10.83;100.00;95086.16;4315330;33;20212;-58
2023/05/12 04:01:04;;;;;;;2.30;2.20;;;;;;;10.79;100.00;95083.34;4350097;32;20180;-58
2023/05/12 04:03:30;;;;;;;2.37;2.27;;;;;;;10.98;100.00;95083.19;4339502;32;20189;-58
2023/05/12 04:06:02;;;;;;;2.73;2.63;;;;;;;10.99;100.00;95077.56;4354355;32;20215;-58
2023/05/12 04:08:27;;;;;;;2.20;2.03;;;;;;;10.95;100.00;95081.91;4329997;33;20224;-58
2023/05/12 04:10:58;;;;;;;3.23;2.87;;;;;;;11.04;100.00;95087.25;4319514;32;20201;-59
2023/05/12 04:13:24;;;;;;;2.30;2.20;;;;;;;10.85;100.00;95084.78;4345196;32;20189;-57
2023/05/12 04:15:50;;;;;;;2.50;2.40;;;;;;;10.82;100.00;95085.37;4347572;32;20269;-58
2023/05/12 04:18:16;;;;;;;2.17;2.07;;;;;;;10.96;100.00;95085.34;4342708;32;20212;-59
2023/05/12 04:20:42;;;;;;;1.93;1.83;;;;;;;11.06;100.00;95085.09;4340380;32;20237;-58
2023/05/12 04:23:07;;;;;;;2.87;2.67;;;;;;;11.09;100.00;95083.72;4328242;32;20204;-58
2023/05/12 04:25:33;;;;;;;2.37;2.27;;;;;;;11.19;100.00;95094.09;4337732;32;20197;-58
2023/05/12 04:27:58;;;;;;;2.60;2.17;;;;;;;11.24;100.00;95086.00;4342563;32;20331;-58
2023/05/12 04:30:23;;;;;;;2.13;1.90;;;;;;;11.24;100.00;95086.78;4347413;32;20212;-58
2023/05/12 04:32:49;;;;;;;2.67;2.47;;;;;;;11.17;100.00;95091.75;4328865;32;20197;-58
2023/05/12 04:35:14;;;;;;;2.83;2.03;;;;;;;11.29;100.00;95088.53;4333388;32;20189;-59
2023/05/12 04:37:40;;;;;;;2.13;2.03;;;;;;;11.30;100.00;95092.75;4339404;32;20292;-58
2023/05/12 04:40:06;;;;;;;3.30;2.53;;;;;;;11.05;100.00;95086.19;4345494;32;20215;-58
2023/05/12 04:42:32;;;;;;;1.77;1.73;;;;;;;11.26;100.00;95094.44;4340514;32;20208;-58
2023/05/12 04:44:57;;;;;;;2.10;2.00;;;;;;;11.32;100.00;95093.25;4339173;32;20201;-58
2023/05/12 04:47:23;;;;;;;1.93;1.83;;;;;;;11.28;100.00;95092.28;4346515;32;20198;-58
2023/05/12 04:49:48;;;;;;;1.53;1.50;;;;;;;11.15;100.00;95101.88;4327032;32;20207;-59
2023/05/12 04:52:13;;;;;;;1.20;1.20;;;;;;;11.32;100.00;95102.00;4340147;32;20216;-58
2023/05/12 04:54:39;;;;;;;1.97;1.87;;;;;;;11.36;100.00;95115.47;4342547;32;20209;-59
2023/05/12 04:57:04;;;;;;;1.93;1.83;;;;;;;11.38;100.00;95101.88;4345176;32;20194;-58
2023/05/12 04:59:30;;;;;;;1.83;1.73;;;;;;;11.40;100.00;95110.34;4345210;32;20185;-58
2023/05/12 05:01:56;;;;;;;2.13;2.03;;;;;;;11.51;100.00;95103.66;4340399;32;20207;-58
2023/05/12 05:04:21;;;;;;;2.17;2.07;;;;;;;11.44;100.00;95109.41;4333198;32;20236;-58
2023/05/12 05:06:47;;;;;;;1.63;1.57;;;;;;;11.51;100.00;95111.62;4333982;32;20194;-58
2023/05/12 05:09:12;;;;;;;1.43;1.43;;;;;;;11.59;100.00;95111.69;4334420;32;20248;-58
2023/05/12 05:11:37;;;;;;;2.10;1.80;;;;;;;11.55;100.00;95117.91;4349241;32;20215;-58
2023/05/12 05:14:03;;;;;;;1.77;1.67;;;;;;;11.64;100.00;95113.41;4317995;32;20304;-58
2023/05/12 05:16:28;;;;;;;1.63;1.53;;;;;;;11.62;100.00;95113.75;4328603;32;20334;-59
2023/05/12 05:18:53;;;;;;;1.30;1.30;;;;;;;11.64;100.00;95116.84;4333390;32;20198;-58
2023/05/12 05:21:19;;;;;;;1.67;1.40;;;;;;;11.74;100.00;95112.38;4348019;32;20238;-59
2023/05/12 05:23:44;;;;;;;6.90;1.40;;;;;;;11.74;100.00;95112.38;4347621;32;20197;-59
2023/05/12 05:26:11;;;;;;;1.70;1.70;;;;;;;11.80;100.00;95113.88;4331560;32;20189;-59
2023/05/12 05:28:38;;;;;;;1.10;1.10;;;;;;;11.67;100.00;95115.47;4353145;32;20197;-58
2023/05/12 05:31:04;;;;;;;0.97;0.97;;;;;;;11.71;100.00;95116.44;4332970;32;20193;-58
2023/05/12 05:33:30;;;;;;;2.50;2.13;;;;;;;11.76;100.00;95124.31;4341652;32;20200;-58
2023/05/12 05:35:55;;;;;;;1.83;1.77;;;;;;;11.82;100.00;95119.66;4333601;32;20185;-58
2023/05/12 05:38:21;;;;;;;2.33;2.13;;;;;;;11.79;100.00;95122.91;4340881;32;20244;-59
2023/05/12 05:40:46;;;;;;;1.47;1.37;;;;;;;11.79;100.00;95125.59;4339197;32;20211;-59
2023/05/12 05:43:11;;;;;;;1.60;1.50;;;;;;;11.69;100.00;95116.75;4333159;32;20233;-59
2023/05/12 05:45:37;;;;;;;1.00;0.90;;;;;;;11.56;100.00;95128.25;4346985;32;20253;-58
2023/05/12 05:48:02;;;;;;;0.50;0.50;;;;;;;11.56;100.00;95122.94;4346597;32;20228;-59
2023/05/12 05:50:28;;;;;;;1.57;0.80;;;;;;;11.38;100.00;95131.09;4332586;32;20197;-59
2023/05/12 05:52:54;;;;;;;1.20;1.10;;;;;;;11.68;100.00;95128.44;4333445;32;20212;-58
2023/05/12 05:55:20;;;;;;;0.87;0.83;;;;;;;11.82;100.00;95127.62;4337310;32;20221;-58
2023/05/12 05:57:45;;;;;;;4.57;0.80;;;;;;;11.92;100.00;95130.00;4333821;32;20234;-58
2023/05/12 06:00:11;;;;;;;1.03;1.03;;;;;;;11.76;100.00;95126.16;4342308;32;20473;-58
2023/05/12 06:02:36;;;;;;;0.90;0.90;;;;;;;11.79;100.00;95129.03;4336037;32;20189;-59
2023/05/12 06:05:06;;;;;;;1.03;1.03;;;;;;;11.78;100.00;95127.47;4343338;32;20245;-59
2023/05/12 06:07:32;;;;;;;0.67;0.67;;;;;;;11.75;100.00;95116.63;4334915;32;20212;-58
2023/05/12 06:09:57;;;;;;;0.77;0.77;;;;;;;11.82;100.00;95119.66;4337059;32;20193;-59
2023/05/12 06:12:23;;;;;;;0.80;0.80;;;;;;;11.70;100.00;95125.50;4348796;32;20220;-59
2023/05/12 06:14:48;;;;;;;6.73;1.43;;;;;;;11.78;100.00;95126.66;4334048;32;20301;-60
2023/05/12 06:17:13;;;;;;;4.17;1.63;;;;;;;13.81;100.00;95126.00;4344800;32;20193;-60
2023/05/12 06:19:39;;;;;;;1.50;0.80;;;;;;;14.37;100.00;95125.59;4339636;32;20195;-60
2023/05/12 06:22:04;;;;;;;0.40;0.40;;;;;;;14.53;100.00;95131.22;4342274;32;20194;-59
2023/05/12 06:24:29;;;;;;;0.63;0.63;;;;;;;14.95;96.63;95134.75;4329756;32;20344;-60
2023/05/12 06:26:55;;;;;;;0.63;0.63;;;;;;;15.36;91.98;95133.16;4345683;32;20205;-60
2023/05/12 06:29:21;;;;;;;1.37;1.27;;;;;;;15.60;90.39;95140.50;4334781;32;20216;-60
2023/05/12 06:31:46;;;;;;;1.13;1.13;;;;;;;15.65;89.62;95138.41;4339554;32;20189;-59
2023/05/12 06:34:12;;;;;;;0.60;0.60;;;;;;;15.92;85.18;95145.06;4344275;32;20225;-60
2023/05/12 06:36:37;;;;;;;1.00;1.00;;;;;;;16.12;82.22;95144.22;4332620;32;20189;-59
2023/05/12 06:39:03;;;;;;;0.50;0.50;;;;;;;16.21;81.86;95144.09;4346489;32;20216;-59
2023/05/12 06:41:30;;;;;;;0.67;0.67;;;;;;;16.23;80.41;95147.22;4341475;32;20281;-59
2023/05/12 06:43:55;;;;;;;0.93;0.93;;;;;;;16.26;79.42;95149.25;4332241;32;20228;-60
2023/05/12 06:46:21;;;;;;;0.63;0.63;;;;;;;16.37;79.17;95150.38;4346599;32;20201;-59
2023/05/12 06:48:49;;;;;;;0.80;0.80;;;;;;;16.31;78.78;95146.34;4347312;32;20205;-60
2023/05/12 06:51:14;;;;;;;1.23;0.90;;;;;;;16.26;77.79;95151.91;4327534;32;20250;-59
2023/05/12 06:53:40;;;;;;;0.43;0.43;;;;;;;16.46;86.37;95142.22;4341424;32;20204;-59
2023/05/12 06:56:06;;;;;;;0.60;0.47;;;;;;;16.66;89.09;95144.03;4347624;32;20190;-59
2023/05/12 06:58:31;;;;;;;1.47;1.17;;;;;;;16.67;87.37;95139.47;4332651;32;20193;-58
2023/05/12 07:00:57;;;;;;;0.33;0.33;;;;;;;16.54;79.93;95141.34;4331853;32;20201;-58
2023/05/12 07:03:22;;;;;;;0.40;0.40;;;;;;;15.61;76.40;95145.53;4337577;32;20186;-59
2023/05/12 07:05:48;;;;;;;0.80;0.80;;;;;;;15.07;78.62;95150.03;4342371;32;20193;-58
2023/05/12 07:08:13;;;;;;;0.83;0.83;;;;;;;14.83;80.02;95150.66;4340359;32;20216;-58
2023/05/12 07:10:39;;;;;;;0.50;0.50;;;;;;;14.65;81.74;95149.22;4358881;32;20213;-58
2023/05/12 07:13:04;;;;;;;0.70;0.60;;;;;;;14.42;82.08;95148.69;4341766;32;20189;-58
2023/05/12 07:15:30;;;;;;;0.37;0.37;;;;;;;14.48;81.90;95149.31;4354877;32;20201;-57
2023/05/12 07:17:55;;;;;;;0.40;0.40;;;;;;;14.20;81.74;95148.94;4357532;32;20247;-58
2023/05/12 07:20:21;;;;;;;0.53;0.53;;;;;;;14.16;82.57;95153.31;4354109;32;20190;-58
2023/05/12 07:22:47;;;;;;;0.60;0.60;;;;;;;13.93;83.50;95145.56;4358136;32;20200;-57
2023/05/12 07:25:12;;;;;;;0.37;0.37;;;;;;;13.87;82.82;95141.50;4338712;32;20185;-58
2023/05/12 07:27:38;;;;;;;0.43;0.43;;;;;;;13.57;85.20;95145.94;4346684;32;20203;-58
2023/05/12 07:30:07;;;;;;;0.47;0.47;;;;;;;13.69;86.26;95146.09;4361451;32;20229;-58
2023/05/12 07:32:33;;;;;;;0.30;0.30;;;;;;;13.61;86.91;95138.91;4337228;32;20232;-57
2023/05/12 07:34:58;;;;;;;0.50;0.50;;;;;;;13.80;87.13;95141.22;4340609;32;20204;-58
2023/05/12 07:37:24;;;;;;;1.03;1.03;;;;;;;13.86;86.70;95144.50;4339011;32;20208;-59
2023/05/12 07:39:49;;;;;;;1.80;0.50;;;;;;;13.85;86.71;95143.72;4344206;32;20181;-59
2023/05/12 07:42:15;;;;;;;0.53;0.53;;;;;;;13.91;85.52;95139.00;4356273;32;20211;-59
2023/05/12 07:44:40;;;;;;;0.47;0.47;;;;;;;13.93;84.38;95139.44;4342794;32;20208;-59
2023/05/12 07:47:07;;;;;;;0.90;0.80;;;;;;;13.89;83.87;95143.88;4359570;32;20224;-58
2023/05/12 07:49:32;;;;;;;0.37;0.37;;;;;;;13.57;82.99;95143.28;4356091;32;20190;-58
2023/05/12 07:51:57;;;;;;;0.40;0.40;;;;;;;13.53;84.10;95149.56;4327825;32;20193;-58
2023/05/12 07:54:23;;;;;;;0.20;0.20;;;;;;;13.72;83.49;95142.78;4340519;32;20230;-59
2023/05/12 07:56:48;;;;;;;0.30;0.30;;;;;;;13.93;83.09;95150.09;4349295;32;20228;-59
2023/05/12 07:59:14;;;;;;;0.50;0.50;;;;;;;13.67;83.96;95142.97;4357671;32;20247;-54
2023/05/12 08:01:39;;;;;;;0.40;0.40;;;;;;;13.75;83.77;95144.81;4339183;32;20239;-61
2023/05/12 08:04:05;;;;;;;0.53;0.53;;;;;;;13.55;83.83;95145.47;4348647;32;20208;-58
2023/05/12 08:06:32;;;;;;;1.37;1.27;;;;;;;13.37;85.49;95143.94;4351865;32;20232;-58
2023/05/12 08:08:58;;;;;;;0.40;0.40;;;;;;;13.45;86.00;95147.72;4360206;32;20185;-59
2023/05/12 08:11:24;;;;;;;0.67;0.67;;;;;;;13.65;85.34;95145.16;4343523;32;20205;-58
2023/05/12 08:13:50;;;;;;;0.90;0.90;;;;;;;13.50;85.16;95148.34;4352206;32;20263;-58
2023/05/12 08:16:15;;;;;;;0.40;0.40;;;;;;;13.56;84.87;95146.25;4346315;32;20189;-59
2023/05/12 08:18:41;;;;;;;0.67;0.67;;;;;;;13.27;86.11;95145.06;4350320;32;20264;-59
2023/05/12 08:21:07;;;;;;;0.87;0.87;;;;;;;13.24;87.05;95144.91;4353160;32;20242;-57
2023/05/12 08:23:33;;;;;;;1.60;1.50;;;;;;;13.35;87.41;95146.13;4353846;32;20227;-57
2023/05/12 08:25:58;;;;;;;0.70;0.70;;;;;;;13.33;88.04;95143.78;4339081;32;20237;-58
2023/05/12 08:28:24;;;;;;;0.50;0.50;;;;;;;13.20;89.25;95143.94;4343512;32;20181;-58
2023/05/12 08:30:49;;;;;;;0.50;0.50;;;;;;;13.27;87.96;95150.38;4352372;32;20236;-59
2023/05/12 08:33:15;;;;;;;0.60;0.60;;;;;;;13.25;87.99;95152.56;4344213;32;20235;-59
2023/05/12 08:35:40;;;;;;;0.50;0.50;;;;;;;13.36;87.81;95153.03;4339736;32;20176;-59
2023/05/12 08:38:06;;;;;;;0.50;0.50;;;;;;;13.27;86.38;95149.59;4345557;32;20212;-59
2023/05/12 08:40:36;;;;;;;0.30;0.30;;;;;;;13.19;86.11;95153.03;4351377;32;20198;-58
2023/05/12 08:43:17;;;;;;;0.40;0.40;;;;;;;13.00;86.72;95154.09;4351779;32;20193;-58
2023/05/12 08:45:43;;;;;;;1.43;1.03;;;;;;;13.23;86.61;95154.78;4334842;32;20291;-59
2023/05/12 08:48:09;;;;;;;1.17;0.80;;;;;;;13.35;86.59;95146.91;4346212;32;20220;-58
2023/05/12 08:50:37;;;;;;;0.50;0.50;;;;;;;13.12;87.03;95150.03;4351126;32;20212;-58
2023/05/12 08:53:04;;;;;;;0.10;0.10;;;;;;;13.29;85.49;95153.53;4350348;32;20220;-57
2023/05/12 08:55:30;;;;;;;0.80;0.80;;;;;;;13.34;85.41;95155.22;4351393;32;20271;-58
2023/05/12 08:57:57;;;;;;;0.13;0.13;;;;;;;13.49;85.31;95149.44;4339756;32;20190;-58
2023/05/12 09:00:24;;;;;;;0.23;0.23;;;;;;;13.56;85.08;95147.06;4337934;32;20240;-58
2023/05/12 09:02:51;;;;;;;0.30;0.30;;;;;;;13.40;85.07;95153.97;4333734;32;20190;-58
2023/05/12 09:05:16;;;;;;;0.57;0.57;;;;;;;13.32;85.86;95152.87;4324985;32;20193;-57
2023/05/12 09:07:43;;;;;;;0.83;0.83;;;;;;;13.29;86.11;95156.19;4344851;32;20308;-58
2023/05/12 09:10:15;;;;;;;0.40;0.40;;;;;;;13.48;86.87;95147.06;4344004;32;20203;-58
2023/05/12 09:12:41;;;;;;;0.43;0.43;;;;;;;13.34;86.03;95157.88;4331432;32;20199;-58
2023/05/12 09:15:10;;;;;;;0.43;0.43;;;;;;;13.38;84.11;95156.16;4332083;32;20186;-57
2023/05/12 09:17:36;;;;;;;0.83;0.67;;;;;;;13.44;83.37;95160.25;4350918;32;20244;-57
2023/05/12 09:20:02;;;;;;;0.73;0.73;;;;;;;13.34;83.95;95152.56;4345282;32;20277;-56
2023/05/12 09:22:29;;;;;;;0.47;0.47;;;;;;;13.45;84.11;95156.47;4328705;32;20231;-58
2023/05/12 09:24:54;;;;;;;0.37;0.37;;;;;;;13.42;84.61;95165.09;4352941;32;20212;-58
2023/05/12 09:27:27;;;;;;;0.60;0.60;;;;;;;13.47;83.99;95164.16;4324849;32;20205;-57
2023/05/12 09:29:52;;;;;;;0.47;0.47;;;;;;;13.63;87.43;95152.69;4341676;32;20286;-58
2023/05/12 09:32:30;;;;;;;0.30;0.30;;;;;;;13.87;86.28;95154.06;4344216;32;20193;-58
2023/05/12 09:34:55;;;;;;;0.53;0.53;;;;;;;14.01;83.82;95157.31;4344790;32;20243;-58
2023/05/12 09:37:30;;;;;;;0.10;0.10;;;;;;;13.98;84.81;95153.37;4328331;32;20185;-58
2023/05/12 09:40:03;;;;;;;0.30;0.30;;;;;;;14.03;84.98;95157.78;4346083;32;20201;-60
2023/05/12 09:42:31;;;;;;;2.03;0.93;;;;;;;14.16;83.43;95156.78;4328980;32;20204;-59
2023/05/12 09:45:03;;;;;;;0.43;0.40;;;;;;;14.19;84.40;95158.03;4330770;32;20211;-58
2023/05/12 09:47:36;;;;;;;0.37;0.37;;;;;;;14.26;82.32;95169.78;4322561;33;20185;-58
2023/05/12 09:50:03;;;;;;;0.20;0.20;;;;;;;13.97;83.11;95162.50;4336054;32;20189;-58
2023/05/12 09:52:31;;;;;;;0.30;0.30;;;;;;;13.77;84.57;95158.63;4340890;32;20193;-57
2023/05/12 09:55:12;;;;;;;0.13;0.13;;;;;;;13.83;84.83;95161.13;4344034;32;20259;-58
2023/05/12 09:57:41;;;;;;;0.20;0.20;;;;;;;13.61;86.28;95165.56;4340238;32;20189;-59
2023/05/12 10:00:12;;;;;;;0.20;0.20;;;;;;;13.70;84.79;95160.22;4342405;32;20205;-58
2023/05/12 10:02:41;;;;;;;0.20;0.20;;;;;;;13.77;85.43;95163.94;4345574;32;20193;-58
2023/05/12 10:05:14;;;;;;;0.37;0.37;;;;;;;13.90;85.79;95156.09;4338768;32;20189;-59
2023/05/12 10:07:43;;;;;;;0.10;0.10;;;;;;;13.71;86.38;95162.56;4350202;32;20212;-61
2023/05/12 10:10:13;;;;;;;0.37;0.37;;;;;;;13.75;85.42;95160.81;4344539;32;20185;-59
2023/05/12 10:12:38;;;;;;;0.47;0.47;;;;;;;13.94;86.34;95157.00;4340863;32;20192;-58
2023/05/12 10:15:08;;;;;;;0.20;0.20;;;;;;;13.88;86.25;95158.28;4357309;32;20202;-58
2023/05/12 10:17:35;;;;;;;0.47;0.40;;;;;;;14.08;85.20;95157.59;4325276;32;20201;-58
2023/05/12 10:20:02;;;;;;;0.30;0.30;;;;;;;14.15;83.48;95162.44;4337433;32;20207;-57
2023/05/12 10:22:30;;;;;;;0.27;0.27;;;;;;;14.01;81.70;95170.66;4340296;32;20254;-57
2023/05/12 10:24:56;;;;;;;0.50;0.50;;;;;;;13.98;81.47;95165.94;4356444;32;20193;-58
2023/05/12 10:27:23;;;;;;;0.07;0.07;;;;;;;14.07;81.98;95161.37;4357848;32;20223;-57
2023/05/12 10:29:49;;;;;;;0.37;0.37;;;;;;;13.99;83.12;95167.50;4359010;32;20255;-57
2023/05/12 10:32:15;;;;;;;0.30;0.30;;;;;;;14.21;83.55;95161.16;4359309;32;20208;-58
2023/05/12 10:34:40;;;;;;;0.20;0.20;;;;;;;14.35;82.21;95165.19;4354896;32;20256;-58
2023/05/12 10:37:12;;;;;;;0.10;0.10;;;;;;;14.19;80.90;95169.47;4348943;32;20263;-58
2023/05/12 10:39:48;;;;;;;0.23;0.23;;;;;;;14.32;81.42;95173.84;4362341;32;20197;-58
2023/05/12 10:42:24;;;;;;;0.40;0.30;;;;;;;14.32;80.76;95173.84;4358165;32;20193;-58
2023/05/12 10:44:51;;;;;;;0.27;0.27;;;;;;;14.30;78.83;95170.72;4359745;32;20223;-58
2023/05/12 10:47:17;;;;;;;0.20;0.20;;;;;;;14.28;78.73;95174.81;4339831;32;20205;-58
2023/05/12 10:49:43;;;;;;;0.00;0.00;;;;;;;14.39;76.91;95174.13;4357117;32;20228;-57
2023/05/12 10:52:12;;;;;;;0.20;0.20;;;;;;;14.54;75.92;95174.72;4357246;32;20252;-58
2023/05/12 10:54:43;;;;;;;0.20;0.20;;;;;;;14.59;76.72;95171.84;4336133;32;20205;-58
2023/05/12 10:57:13;;;;;;;0.10;0.10;;;;;;;14.52;78.09;95172.38;4356099;32;20189;-58
2023/05/12 10:59:49;;;;;;;0.10;0.10;;;;;;;14.62;77.82;95169.31;4353267;32;20198;-58
2023/05/12 11:02:16;;;;;;;0.00;0.00;;;;;;;14.54;78.78;95174.72;4339258;32;20196;-58
2023/05/12 11:04:47;;;;;;;0.30;0.30;;;;;;;14.48;77.64;95181.34;4358882;32;20231;-57
2023/05/12 11:07:14;;;;;;;0.40;0.40;;;;;;;14.37;78.42;95176.31;4338313;32;20239;-58
2023/05/12 11:09:45;;;;;;;0.10;0.10;;;;;;;14.42;79.32;95178.84;4344141;32;20189;-60
2023/05/12 11:12:11;;;;;;;0.00;0.00;;;;;;;14.51;78.45;95178.03;4342804;32;20227;-58
2023/05/12 11:14:39;;;;;;;0.10;0.10;;;;;;;14.53;80.23;95189.19;4357993;32;20203;-58
2023/05/12 11:17:04;;;;;;;0.00;0.00;;;;;;;14.33;78.87;95186.09;4340695;32;20190;-57
2023/05/12 11:19:31;;;;;;;0.13;0.13;;;;;;;14.43;79.69;95180.41;4361913;32;20272;-57
2023/05/12 11:21:57;;;;;;;0.10;0.10;;;;;;;14.28;80.51;95183.59;4361634;32;20201;-57
2023/05/12 11:24:23;;;;;;;0.73;0.63;;;;;;;14.30;81.03;95184.06;4352016;32;20228;-58
2023/05/12 11:26:50;;;;;;;0.10;0.10;;;;;;;14.21;82.10;95179.84;4355724;32;20188;-57